sensor_id;sensor_type;location;lat;lon;timestamp;P1;durP1;ratioP1;P2;durP2;ratioP2
18867;SDS011;9563;49.240;9.088;2022-11-21T00:01:10;4.70;;;1.30;;
18867;SDS011;9563;49.240;9.088;2022-11-21T00:03:40;3.90;;;1.13;;
18867;SDS011;9563;49.240;9.088;2022-11-21T00:06:06;1.97;;;0.90;;
18867;SDS011;9563;49.240;9.088;2022-11-21T00:08:33;2.57;;;0.97;;
18867;SDS011;9563;49.240;9.088;2022-11-21T00:11:00;5.07;;;1.27;;
18867;SDS011;9563;49.240;9.088;2022-11-21T00:13:27;3.50;;;1.30;;
18867;SDS011;9563;49.240;9.088;2022-11-21T00:15:55;4.43;;;1.30;;
18867;SDS011;9563;49.240;9.088;2022-11-21T00:18:28;3.97;;;1.20;;
18867;SDS011;9563;49.240;9.088;2022-11-21T00:20:55;3.23;;;1.17;;
18867;SDS011;9563;49.240;9.088;2022-11-21T00:23:22;2.87;;;1.00;;
18867;SDS011;9563;49.240;9.088;2022-11-21T00:25:52;1.93;;;0.90;;
18867;SDS011;9563;49.240;9.088;2022-11-21T00:28:19;5.63;;;1.30;;
18867;SDS011;9563;49.240;9.088;2022-11-21T00:30:46;2.93;;;1.27;;
18867;SDS011;9563;49.240;9.088;2022-11-21T00:33:15;2.43;;;0.90;;
18867;SDS011;9563;49.240;9.088;2022-11-21T00:35:41;4.53;;;1.13;;
18867;SDS011;9563;49.240;9.088;2022-11-21T00:38:08;5.17;;;1.63;;
18867;SDS011;9563;49.240;9.088;2022-11-21T00:40:35;4.83;;;1.00;;
18867;SDS011;9563;49.240;9.088;2022-11-21T00:43:02;4.20;;;1.07;;
18867;SDS011;9563;49.240;9.088;2022-11-21T00:45:29;1.90;;;0.80;;
18867;SDS011;9563;49.240;9.088;2022-11-21T00:47:55;1.87;;;0.80;;
18867;SDS011;9563;49.240;9.088;2022-11-21T00:50:24;3.43;;;1.10;;
18867;SDS011;9563;49.240;9.088;2022-11-21T00:52:53;4.10;;;0.93;;
18867;SDS011;9563;49.240;9.088;2022-11-21T00:55:21;4.77;;;0.90;;
18867;SDS011;9563;49.240;9.088;2022-11-21T00:57:48;3.07;;;1.00;;
18867;SDS011;9563;49.240;9.088;2022-11-21T01:00:15;3.47;;;0.90;;
18867;SDS011;9563;49.240;9.088;2022-11-21T01:02:43;7.83;;;0.90;;
18867;SDS011;9563;49.240;9.088;2022-11-21T01:05:10;2.93;;;1.20;;
18867;SDS011;9563;49.240;9.088;2022-11-21T01:07:38;4.97;;;1.20;;
18867;SDS011;9563;49.240;9.088;2022-11-21T01:10:05;2.90;;;0.93;;
18867;SDS011;9563;49.240;9.088;2022-11-21T01:12:33;2.80;;;0.90;;
18867;SDS011;9563;49.240;9.088;2022-11-21T01:14:59;2.07;;;0.90;;
18867;SDS011;9563;49.240;9.088;2022-11-21T01:17:26;1.83;;;0.70;;
18867;SDS011;9563;49.240;9.088;2022-11-21T01:19:53;5.00;;;1.20;;
18867;SDS011;9563;49.240;9.088;2022-11-21T01:22:20;2.30;;;0.83;;
18867;SDS011;9563;49.240;9.088;2022-11-21T01:24:48;7.63;;;1.40;;
18867;SDS011;9563;49.240;9.088;2022-11-21T01:27:15;3.20;;;0.93;;
18867;SDS011;9563;49.240;9.088;2022-11-21T01:29:42;4.13;;;1.30;;
18867;SDS011;9563;49.240;9.088;2022-11-21T01:32:09;7.07;;;1.13;;
18867;SDS011;9563;49.240;9.088;2022-11-21T01:34:36;4.17;;;1.20;;
18867;SDS011;9563;49.240;9.088;2022-11-21T01:37:03;2.43;;;1.00;;
18867;SDS011;9563;49.240;9.088;2022-11-21T01:39:30;5.43;;;1.50;;
18867;SDS011;9563;49.240;9.088;2022-11-21T01:41:58;4.07;;;1.10;;
18867;SDS011;9563;49.240;9.088;2022-11-21T01:44:25;2.80;;;0.90;;
18867;SDS011;9563;49.240;9.088;2022-11-21T01:47:10;2.87;;;1.53;;
18867;SDS011;9563;49.240;9.088;2022-11-21T01:49:37;3.50;;;1.13;;
18867;SDS011;9563;49.240;9.088;2022-11-21T01:52:07;1.00;;;0.80;;
18867;SDS011;9563;49.240;9.088;2022-11-21T01:54:38;5.30;;;0.80;;
18867;SDS011;9563;49.240;9.088;2022-11-21T01:57:10;4.27;;;0.90;;
18867;SDS011;9563;49.240;9.088;2022-11-21T01:59:41;3.70;;;0.90;;
18867;SDS011;9563;49.240;9.088;2022-11-21T02:02:12;5.20;;;1.20;;
18867;SDS011;9563;49.240;9.088;2022-11-21T02:04:42;4.40;;;1.37;;
18867;SDS011;9563;49.240;9.088;2022-11-21T02:07:10;5.00;;;0.90;;
18867;SDS011;9563;49.240;9.088;2022-11-21T02:09:39;1.97;;;0.93;;
18867;SDS011;9563;49.240;9.088;2022-11-21T02:12:10;2.07;;;0.90;;
18867;SDS011;9563;49.240;9.088;2022-11-21T02:14:40;2.67;;;0.87;;
18867;SDS011;9563;49.240;9.088;2022-11-21T02:17:09;3.33;;;0.70;;
18867;SDS011;9563;49.240;9.088;2022-11-21T02:19:37;1.47;;;0.70;;
18867;SDS011;9563;49.240;9.088;2022-11-21T02:22:11;9.10;;;0.90;;
18867;SDS011;9563;49.240;9.088;2022-11-21T02:24:43;3.10;;;0.80;;
18867;SDS011;9563;49.240;9.088;2022-11-21T02:27:13;0.60;;;0.60;;
18867;SDS011;9563;49.240;9.088;2022-11-21T02:29:41;5.07;;;0.70;;
18867;SDS011;9563;49.240;9.088;2022-11-21T02:32:08;3.83;;;0.70;;
18867;SDS011;9563;49.240;9.088;2022-11-21T02:34:46;1.43;;;0.43;;
18867;SDS011;9563;49.240;9.088;2022-11-21T02:37:13;1.67;;;0.60;;
18867;SDS011;9563;49.240;9.088;2022-11-21T02:39:41;1.93;;;0.73;;
18867;SDS011;9563;49.240;9.088;2022-11-21T02:42:11;2.30;;;0.60;;
18867;SDS011;9563;49.240;9.088;2022-11-21T02:44:48;2.47;;;0.60;;
18867;SDS011;9563;49.240;9.088;2022-11-21T02:47:22;1.90;;;0.83;;
18867;SDS011;9563;49.240;9.088;2022-11-21T02:49:52;2.60;;;0.70;;
18867;SDS011;9563;49.240;9.088;2022-11-21T02:52:23;3.60;;;0.80;;
18867;SDS011;9563;49.240;9.088;2022-11-21T02:54:49;4.90;;;1.00;;
18867;SDS011;9563;49.240;9.088;2022-11-21T02:57:18;3.17;;;1.47;;
18867;SDS011;9563;49.240;9.088;2022-11-21T02:59:45;3.43;;;1.13;;
18867;SDS011;9563;49.240;9.088;2022-11-21T03:02:12;6.10;;;1.03;;
18867;SDS011;9563;49.240;9.088;2022-11-21T03:04:39;1.77;;;1.10;;
18867;SDS011;9563;49.240;9.088;2022-11-21T03:07:06;2.83;;;1.10;;
18867;SDS011;9563;49.240;9.088;2022-11-21T03:09:33;4.50;;;1.33;;
18867;SDS011;9563;49.240;9.088;2022-11-21T03:12:04;4.50;;;1.30;;
18867;SDS011;9563;49.240;9.088;2022-11-21T03:14:33;3.03;;;1.20;;
18867;SDS011;9563;49.240;9.088;2022-11-21T03:17:00;1.90;;;0.87;;
18867;SDS011;9563;49.240;9.088;2022-11-21T03:19:27;5.10;;;1.40;;
18867;SDS011;9563;49.240;9.088;2022-11-21T03:21:54;3.90;;;1.27;;
18867;SDS011;9563;49.240;9.088;2022-11-21T03:24:21;2.63;;;1.30;;
18867;SDS011;9563;49.240;9.088;2022-11-21T03:26:48;4.83;;;1.30;;
18867;SDS011;9563;49.240;9.088;2022-11-21T03:29:15;1.50;;;0.90;;
18867;SDS011;9563;49.240;9.088;2022-11-21T03:31:43;3.30;;;1.30;;
18867;SDS011;9563;49.240;9.088;2022-11-21T03:34:10;3.30;;;1.03;;
18867;SDS011;9563;49.240;9.088;2022-11-21T03:36:37;4.13;;;1.30;;
18867;SDS011;9563;49.240;9.088;2022-11-21T03:39:04;2.90;;;0.83;;
18867;SDS011;9563;49.240;9.088;2022-11-21T03:41:31;1.87;;;1.00;;
18867;SDS011;9563;49.240;9.088;2022-11-21T03:43:58;6.03;;;1.00;;
18867;SDS011;9563;49.240;9.088;2022-11-21T03:46:26;6.03;;;1.03;;
18867;SDS011;9563;49.240;9.088;2022-11-21T03:48:55;2.80;;;0.87;;
18867;SDS011;9563;49.240;9.088;2022-11-21T03:51:23;1.00;;;0.70;;
18867;SDS011;9563;49.240;9.088;2022-11-21T03:53:50;1.07;;;0.63;;
18867;SDS011;9563;49.240;9.088;2022-11-21T03:56:17;2.37;;;0.77;;
18867;SDS011;9563;49.240;9.088;2022-11-21T03:58:44;2.63;;;0.60;;
18867;SDS011;9563;49.240;9.088;2022-11-21T04:01:11;2.67;;;0.80;;
18867;SDS011;9563;49.240;9.088;2022-11-21T04:03:39;4.23;;;0.90;;
18867;SDS011;9563;49.240;9.088;2022-11-21T04:06:07;1.87;;;0.93;;
18867;SDS011;9563;49.240;9.088;2022-11-21T04:08:35;3.80;;;0.50;;
18867;SDS011;9563;49.240;9.088;2022-11-21T04:11:02;2.63;;;0.80;;
18867;SDS011;9563;49.240;9.088;2022-11-21T04:13:28;2.20;;;1.00;;
18867;SDS011;9563;49.240;9.088;2022-11-21T04:15:55;3.40;;;1.10;;
18867;SDS011;9563;49.240;9.088;2022-11-21T04:18:22;1.27;;;0.80;;
18867;SDS011;9563;49.240;9.088;2022-11-21T04:20:54;5.33;;;0.90;;
18867;SDS011;9563;49.240;9.088;2022-11-21T04:23:22;3.87;;;0.80;;
18867;SDS011;9563;49.240;9.088;2022-11-21T04:25:49;3.57;;;0.73;;
18867;SDS011;9563;49.240;9.088;2022-11-21T04:28:16;1.33;;;0.80;;
18867;SDS011;9563;49.240;9.088;2022-11-21T04:30:43;2.47;;;0.80;;
18867;SDS011;9563;49.240;9.088;2022-11-21T04:33:10;2.30;;;0.80;;
18867;SDS011;9563;49.240;9.088;2022-11-21T04:35:38;3.20;;;1.07;;
18867;SDS011;9563;49.240;9.088;2022-11-21T04:38:06;6.03;;;1.67;;
18867;SDS011;9563;49.240;9.088;2022-11-21T04:40:34;2.10;;;0.80;;
18867;SDS011;9563;49.240;9.088;2022-11-21T04:43:02;5.80;;;1.30;;
18867;SDS011;9563;49.240;9.088;2022-11-21T04:45:29;4.43;;;0.90;;
18867;SDS011;9563;49.240;9.088;2022-11-21T04:47:56;1.37;;;0.93;;
18867;SDS011;9563;49.240;9.088;2022-11-21T04:50:23;2.97;;;0.97;;
18867;SDS011;9563;49.240;9.088;2022-11-21T04:52:50;5.23;;;1.03;;
18867;SDS011;9563;49.240;9.088;2022-11-21T04:55:19;5.13;;;0.97;;
18867;SDS011;9563;49.240;9.088;2022-11-21T04:57:48;3.77;;;1.10;;
18867;SDS011;9563;49.240;9.088;2022-11-21T05:00:16;3.63;;;1.10;;
18867;SDS011;9563;49.240;9.088;2022-11-21T05:02:44;1.37;;;1.00;;
18867;SDS011;9563;49.240;9.088;2022-11-21T05:05:11;5.40;;;1.00;;
18867;SDS011;9563;49.240;9.088;2022-11-21T05:07:38;2.67;;;1.00;;
18867;SDS011;9563;49.240;9.088;2022-11-21T05:10:05;3.17;;;1.13;;
18867;SDS011;9563;49.240;9.088;2022-11-21T05:12:34;7.43;;;1.30;;
18867;SDS011;9563;49.240;9.088;2022-11-21T05:15:19;3.37;;;1.00;;
18867;SDS011;9563;49.240;9.088;2022-11-21T05:17:47;2.20;;;0.97;;
18867;SDS011;9563;49.240;9.088;2022-11-21T05:20:14;2.83;;;0.87;;
18867;SDS011;9563;49.240;9.088;2022-11-21T05:22:42;3.63;;;0.80;;
18867;SDS011;9563;49.240;9.088;2022-11-21T05:25:13;1.77;;;0.80;;
18867;SDS011;9563;49.240;9.088;2022-11-21T05:27:40;1.27;;;0.67;;
18867;SDS011;9563;49.240;9.088;2022-11-21T05:30:07;2.77;;;0.90;;
18867;SDS011;9563;49.240;9.088;2022-11-21T05:32:37;3.30;;;0.83;;
18867;SDS011;9563;49.240;9.088;2022-11-21T05:35:04;5.70;;;0.93;;
18867;SDS011;9563;49.240;9.088;2022-11-21T05:37:32;3.77;;;0.90;;
18867;SDS011;9563;49.240;9.088;2022-11-21T05:39:59;2.43;;;0.70;;
18867;SDS011;9563;49.240;9.088;2022-11-21T05:42:26;4.63;;;1.00;;
18867;SDS011;9563;49.240;9.088;2022-11-21T05:45:07;2.23;;;1.00;;
18867;SDS011;9563;49.240;9.088;2022-11-21T05:47:36;2.63;;;1.10;;
18867;SDS011;9563;49.240;9.088;2022-11-21T05:50:03;4.63;;;1.57;;
18867;SDS011;9563;49.240;9.088;2022-11-21T05:52:31;1.87;;;1.00;;
18867;SDS011;9563;49.240;9.088;2022-11-21T05:55:00;3.80;;;1.53;;
18867;SDS011;9563;49.240;9.088;2022-11-21T05:57:27;4.03;;;1.60;;
18867;SDS011;9563;49.240;9.088;2022-11-21T05:59:54;5.27;;;1.40;;
18867;SDS011;9563;49.240;9.088;2022-11-21T06:02:21;4.17;;;1.50;;
18867;SDS011;9563;49.240;9.088;2022-11-21T06:05:07;7.87;;;1.60;;
18867;SDS011;9563;49.240;9.088;2022-11-21T06:07:34;5.37;;;1.40;;
18867;SDS011;9563;49.240;9.088;2022-11-21T06:10:01;5.90;;;1.40;;
18867;SDS011;9563;49.240;9.088;2022-11-21T06:12:28;5.50;;;1.70;;
18867;SDS011;9563;49.240;9.088;2022-11-21T06:15:06;5.07;;;1.70;;
18867;SDS011;9563;49.240;9.088;2022-11-21T06:17:33;5.47;;;1.60;;
18867;SDS011;9563;49.240;9.088;2022-11-21T06:20:01;4.50;;;1.60;;
18867;SDS011;9563;49.240;9.088;2022-11-21T06:22:29;5.80;;;1.50;;
18867;SDS011;9563;49.240;9.088;2022-11-21T06:24:56;5.93;;;1.43;;
18867;SDS011;9563;49.240;9.088;2022-11-21T06:27:22;4.60;;;1.77;;
18867;SDS011;9563;49.240;9.088;2022-11-21T06:29:49;6.90;;;1.60;;
18867;SDS011;9563;49.240;9.088;2022-11-21T06:32:16;4.23;;;2.00;;
18867;SDS011;9563;49.240;9.088;2022-11-21T06:34:43;3.50;;;1.27;;
18867;SDS011;9563;49.240;9.088;2022-11-21T06:37:10;6.30;;;1.73;;
18867;SDS011;9563;49.240;9.088;2022-11-21T06:39:38;5.13;;;1.70;;
18867;SDS011;9563;49.240;9.088;2022-11-21T06:42:05;3.70;;;1.47;;
18867;SDS011;9563;49.240;9.088;2022-11-21T06:44:32;4.83;;;2.27;;
18867;SDS011;9563;49.240;9.088;2022-11-21T06:46:59;6.40;;;2.13;;
18867;SDS011;9563;49.240;9.088;2022-11-21T06:49:26;7.30;;;2.17;;
18867;SDS011;9563;49.240;9.088;2022-11-21T06:51:53;6.40;;;1.63;;
18867;SDS011;9563;49.240;9.088;2022-11-21T06:54:20;6.40;;;2.40;;
18867;SDS011;9563;49.240;9.088;2022-11-21T06:56:48;6.43;;;2.20;;
18867;SDS011;9563;49.240;9.088;2022-11-21T06:59:19;4.53;;;1.70;;
18867;SDS011;9563;49.240;9.088;2022-11-21T07:01:46;8.30;;;2.10;;
18867;SDS011;9563;49.240;9.088;2022-11-21T07:04:13;2.37;;;1.60;;
18867;SDS011;9563;49.240;9.088;2022-11-21T07:06:40;4.83;;;1.80;;
18867;SDS011;9563;49.240;9.088;2022-11-21T07:09:07;5.23;;;1.30;;
18867;SDS011;9563;49.240;9.088;2022-11-21T07:11:34;9.53;;;1.87;;
18867;SDS011;9563;49.240;9.088;2022-11-21T07:14:02;8.87;;;1.80;;
18867;SDS011;9563;49.240;9.088;2022-11-21T07:16:28;8.00;;;1.93;;
18867;SDS011;9563;49.240;9.088;2022-11-21T07:18:56;9.53;;;2.23;;
18867;SDS011;9563;49.240;9.088;2022-11-21T07:21:24;4.07;;;1.97;;
18867;SDS011;9563;49.240;9.088;2022-11-21T07:23:52;8.77;;;2.37;;
18867;SDS011;9563;49.240;9.088;2022-11-21T07:26:19;6.40;;;2.00;;
18867;SDS011;9563;49.240;9.088;2022-11-21T07:28:46;6.17;;;1.83;;
18867;SDS011;9563;49.240;9.088;2022-11-21T07:31:14;7.57;;;2.70;;
18867;SDS011;9563;49.240;9.088;2022-11-21T07:33:41;6.63;;;2.13;;
18867;SDS011;9563;49.240;9.088;2022-11-21T07:36:09;4.60;;;1.60;;
18867;SDS011;9563;49.240;9.088;2022-11-21T07:38:36;7.87;;;2.03;;
18867;SDS011;9563;49.240;9.088;2022-11-21T07:41:05;7.27;;;2.00;;
18867;SDS011;9563;49.240;9.088;2022-11-21T07:43:32;9.97;;;2.50;;
18867;SDS011;9563;49.240;9.088;2022-11-21T07:45:59;8.63;;;2.10;;
18867;SDS011;9563;49.240;9.088;2022-11-21T07:48:28;6.33;;;1.90;;
18867;SDS011;9563;49.240;9.088;2022-11-21T07:50:57;5.80;;;1.73;;
18867;SDS011;9563;49.240;9.088;2022-11-21T07:53:24;11.47;;;2.50;;
18867;SDS011;9563;49.240;9.088;2022-11-21T07:55:52;7.13;;;1.70;;
18867;SDS011;9563;49.240;9.088;2022-11-21T07:58:19;5.67;;;1.40;;
18867;SDS011;9563;49.240;9.088;2022-11-21T08:00:46;4.73;;;1.57;;
18867;SDS011;9563;49.240;9.088;2022-11-21T08:03:13;6.10;;;2.00;;
18867;SDS011;9563;49.240;9.088;2022-11-21T08:05:42;7.07;;;1.67;;
18867;SDS011;9563;49.240;9.088;2022-11-21T08:08:11;9.07;;;2.00;;
18867;SDS011;9563;49.240;9.088;2022-11-21T08:10:38;6.67;;;1.90;;
18867;SDS011;9563;49.240;9.088;2022-11-21T08:13:07;11.10;;;1.90;;
18867;SDS011;9563;49.240;9.088;2022-11-21T08:15:34;6.50;;;2.10;;
18867;SDS011;9563;49.240;9.088;2022-11-21T08:18:05;10.53;;;1.70;;
18867;SDS011;9563;49.240;9.088;2022-11-21T08:20:34;6.13;;;1.90;;
18867;SDS011;9563;49.240;9.088;2022-11-21T08:23:03;8.07;;;1.80;;
18867;SDS011;9563;49.240;9.088;2022-11-21T08:25:31;16.30;;;2.53;;
18867;SDS011;9563;49.240;9.088;2022-11-21T08:27:58;5.17;;;1.60;;
18867;SDS011;9563;49.240;9.088;2022-11-21T08:30:27;6.80;;;1.90;;
18867;SDS011;9563;49.240;9.088;2022-11-21T08:32:56;6.97;;;1.63;;
18867;SDS011;9563;49.240;9.088;2022-11-21T08:35:23;6.23;;;1.73;;
18867;SDS011;9563;49.240;9.088;2022-11-21T08:37:53;5.70;;;1.90;;
18867;SDS011;9563;49.240;9.088;2022-11-21T08:40:22;5.57;;;1.53;;
18867;SDS011;9563;49.240;9.088;2022-11-21T08:42:54;9.73;;;1.40;;
18867;SDS011;9563;49.240;9.088;2022-11-21T08:45:22;6.47;;;2.03;;
18867;SDS011;9563;49.240;9.088;2022-11-21T08:47:49;7.77;;;1.77;;
18867;SDS011;9563;49.240;9.088;2022-11-21T08:50:16;10.57;;;1.47;;
18867;SDS011;9563;49.240;9.088;2022-11-21T08:52:43;10.07;;;1.77;;
18867;SDS011;9563;49.240;9.088;2022-11-21T08:55:10;5.33;;;1.30;;
18867;SDS011;9563;49.240;9.088;2022-11-21T08:57:38;8.60;;;1.33;;
18867;SDS011;9563;49.240;9.088;2022-11-21T09:00:06;11.90;;;1.93;;
18867;SDS011;9563;49.240;9.088;2022-11-21T09:02:36;7.10;;;1.57;;
18867;SDS011;9563;49.240;9.088;2022-11-21T09:05:04;5.43;;;1.33;;
18867;SDS011;9563;49.240;9.088;2022-11-21T09:07:32;9.50;;;1.70;;
18867;SDS011;9563;49.240;9.088;2022-11-21T09:09:59;5.90;;;1.70;;
18867;SDS011;9563;49.240;9.088;2022-11-21T09:12:26;5.63;;;1.53;;
18867;SDS011;9563;49.240;9.088;2022-11-21T09:14:54;7.27;;;1.53;;
18867;SDS011;9563;49.240;9.088;2022-11-21T09:17:39;4.93;;;1.20;;
18867;SDS011;9563;49.240;9.088;2022-11-21T09:20:23;7.97;;;1.40;;
18867;SDS011;9563;49.240;9.088;2022-11-21T09:22:50;5.30;;;1.60;;
18867;SDS011;9563;49.240;9.088;2022-11-21T09:25:17;8.17;;;2.00;;
18867;SDS011;9563;49.240;9.088;2022-11-21T09:27:44;4.40;;;1.30;;
18867;SDS011;9563;49.240;9.088;2022-11-21T09:32:41;4.30;;;1.00;;
18867;SDS011;9563;49.240;9.088;2022-11-21T09:35:08;5.43;;;1.17;;
18867;SDS011;9563;49.240;9.088;2022-11-21T09:37:35;9.43;;;1.53;;
18867;SDS011;9563;49.240;9.088;2022-11-21T09:40:03;7.33;;;1.33;;
18867;SDS011;9563;49.240;9.088;2022-11-21T09:42:38;5.43;;;1.10;;
18867;SDS011;9563;49.240;9.088;2022-11-21T09:45:21;3.13;;;1.00;;
18867;SDS011;9563;49.240;9.088;2022-11-21T09:47:51;6.63;;;1.40;;
18867;SDS011;9563;49.240;9.088;2022-11-21T09:50:21;3.17;;;1.33;;
18867;SDS011;9563;49.240;9.088;2022-11-21T09:52:53;12.00;;;1.43;;
18867;SDS011;9563;49.240;9.088;2022-11-21T09:55:27;6.30;;;1.00;;
18867;SDS011;9563;49.240;9.088;2022-11-21T09:58:01;5.57;;;0.80;;
18867;SDS011;9563;49.240;9.088;2022-11-21T10:00:33;4.60;;;1.13;;
18867;SDS011;9563;49.240;9.088;2022-11-21T10:03:00;6.77;;;1.70;;
18867;SDS011;9563;49.240;9.088;2022-11-21T10:05:29;8.17;;;1.30;;
18867;SDS011;9563;49.240;9.088;2022-11-21T10:08:04;6.93;;;1.23;;
18867;SDS011;9563;49.240;9.088;2022-11-21T10:10:43;3.00;;;1.57;;
18867;SDS011;9563;49.240;9.088;2022-11-21T10:13:36;4.83;;;1.20;;
18867;SDS011;9563;49.240;9.088;2022-11-21T10:16:15;6.10;;;1.60;;
18867;SDS011;9563;49.240;9.088;2022-11-21T10:19:11;3.03;;;1.03;;
18867;SDS011;9563;49.240;9.088;2022-11-21T10:24:53;5.83;;;1.30;;
18867;SDS011;9563;49.240;9.088;2022-11-21T10:27:25;6.73;;;1.10;;
18867;SDS011;9563;49.240;9.088;2022-11-21T10:29:58;4.87;;;1.23;;
18867;SDS011;9563;49.240;9.088;2022-11-21T10:32:30;8.27;;;1.40;;
18867;SDS011;9563;49.240;9.088;2022-11-21T10:35:10;8.27;;;2.37;;
18867;SDS011;9563;49.240;9.088;2022-11-21T10:37:41;8.13;;;1.27;;
18867;SDS011;9563;49.240;9.088;2022-11-21T10:40:23;9.27;;;1.60;;
18867;SDS011;9563;49.240;9.088;2022-11-21T10:42:57;5.90;;;1.40;;
18867;SDS011;9563;49.240;9.088;2022-11-21T10:45:49;8.87;;;1.50;;
18867;SDS011;9563;49.240;9.088;2022-11-21T10:48:17;8.47;;;1.50;;
18867;SDS011;9563;49.240;9.088;2022-11-21T10:50:47;8.73;;;2.00;;
18867;SDS011;9563;49.240;9.088;2022-11-21T10:53:24;9.73;;;1.80;;
18867;SDS011;9563;49.240;9.088;2022-11-21T10:56:10;8.37;;;1.63;;
18867;SDS011;9563;49.240;9.088;2022-11-21T10:58:41;7.23;;;1.33;;
18867;SDS011;9563;49.240;9.088;2022-11-21T11:01:22;13.80;;;1.67;;
18867;SDS011;9563;49.240;9.088;2022-11-21T11:04:06;7.77;;;1.67;;
18867;SDS011;9563;49.240;9.088;2022-11-21T11:06:42;9.03;;;2.00;;
18867;SDS011;9563;49.240;9.088;2022-11-21T11:09:21;9.17;;;1.57;;
18867;SDS011;9563;49.240;9.088;2022-11-21T11:15:15;10.40;;;1.80;;
18867;SDS011;9563;49.240;9.088;2022-11-21T11:17:44;10.90;;;2.53;;
18867;SDS011;9563;49.240;9.088;2022-11-21T11:20:32;4.20;;;1.43;;
18867;SDS011;9563;49.240;9.088;2022-11-21T11:23:16;3.77;;;1.10;;
18867;SDS011;9563;49.240;9.088;2022-11-21T11:25:50;4.77;;;1.10;;
18867;SDS011;9563;49.240;9.088;2022-11-21T11:28:18;9.73;;;1.40;;
18867;SDS011;9563;49.240;9.088;2022-11-21T11:30:48;7.80;;;1.20;;
18867;SDS011;9563;49.240;9.088;2022-11-21T11:33:32;6.50;;;1.10;;
18867;SDS011;9563;49.240;9.088;2022-11-21T11:38:57;10.10;;;1.20;;
18867;SDS011;9563;49.240;9.088;2022-11-21T11:44:48;7.73;;;1.23;;
18867;SDS011;9563;49.240;9.088;2022-11-21T11:47:47;7.90;;;1.40;;
18867;SDS011;9563;49.240;9.088;2022-11-21T11:50:20;5.67;;;1.30;;
18867;SDS011;9563;49.240;9.088;2022-11-21T11:52:51;5.97;;;0.90;;
18867;SDS011;9563;49.240;9.088;2022-11-21T11:55:28;5.83;;;1.03;;
18867;SDS011;9563;49.240;9.088;2022-11-21T11:58:00;8.03;;;1.27;;
18867;SDS011;9563;49.240;9.088;2022-11-21T12:00:34;7.33;;;1.70;;
18867;SDS011;9563;49.240;9.088;2022-11-21T12:03:09;7.43;;;1.33;;
18867;SDS011;9563;49.240;9.088;2022-11-21T12:05:49;7.63;;;1.27;;
18867;SDS011;9563;49.240;9.088;2022-11-21T12:08:23;5.73;;;1.23;;
18867;SDS011;9563;49.240;9.088;2022-11-21T12:11:01;6.67;;;1.60;;
18867;SDS011;9563;49.240;9.088;2022-11-21T12:13:53;6.90;;;1.10;;
18867;SDS011;9563;49.240;9.088;2022-11-21T12:16:22;8.77;;;1.70;;
18867;SDS011;9563;49.240;9.088;2022-11-21T12:18:53;5.83;;;1.70;;
18867;SDS011;9563;49.240;9.088;2022-11-21T12:21:25;5.43;;;1.00;;
18867;SDS011;9563;49.240;9.088;2022-11-21T12:23:54;6.70;;;1.53;;
18867;SDS011;9563;49.240;9.088;2022-11-21T12:26:30;7.30;;;1.40;;
18867;SDS011;9563;49.240;9.088;2022-11-21T12:29:16;6.13;;;1.50;;
18867;SDS011;9563;49.240;9.088;2022-11-21T12:31:57;10.73;;;1.53;;
18867;SDS011;9563;49.240;9.088;2022-11-21T12:34:41;6.80;;;1.20;;
18867;SDS011;9563;49.240;9.088;2022-11-21T12:37:22;9.93;;;1.53;;
18867;SDS011;9563;49.240;9.088;2022-11-21T12:40:02;4.77;;;0.90;;
18867;SDS011;9563;49.240;9.088;2022-11-21T12:42:40;8.93;;;1.10;;
18867;SDS011;9563;49.240;9.088;2022-11-21T12:45:25;4.87;;;1.20;;
18867;SDS011;9563;49.240;9.088;2022-11-21T12:48:09;9.07;;;1.40;;
18867;SDS011;9563;49.240;9.088;2022-11-21T12:51:06;7.63;;;1.40;;
18867;SDS011;9563;49.240;9.088;2022-11-21T12:57:08;5.80;;;1.50;;
18867;SDS011;9563;49.240;9.088;2022-11-21T12:59:41;7.10;;;1.30;;
18867;SDS011;9563;49.240;9.088;2022-11-21T13:02:24;5.10;;;1.30;;
18867;SDS011;9563;49.240;9.088;2022-11-21T13:04:56;6.23;;;1.40;;
18867;SDS011;9563;49.240;9.088;2022-11-21T13:07:26;12.73;;;1.60;;
18867;SDS011;9563;49.240;9.088;2022-11-21T13:09:56;7.73;;;1.60;;
18867;SDS011;9563;49.240;9.088;2022-11-21T13:12:27;7.60;;;1.20;;
18867;SDS011;9563;49.240;9.088;2022-11-21T13:15:07;6.97;;;1.50;;
18867;SDS011;9563;49.240;9.088;2022-11-21T13:17:43;5.73;;;1.53;;
18867;SDS011;9563;49.240;9.088;2022-11-21T13:20:17;6.17;;;1.07;;
18867;SDS011;9563;49.240;9.088;2022-11-21T13:22:50;6.75;;;1.25;;
18867;SDS011;9563;49.240;9.088;2022-11-21T13:28:27;4.60;;;1.20;;
18867;SDS011;9563;49.240;9.088;2022-11-21T13:30:59;7.83;;;1.47;;
18867;SDS011;9563;49.240;9.088;2022-11-21T13:33:45;6.47;;;1.50;;
18867;SDS011;9563;49.240;9.088;2022-11-21T13:36:34;12.07;;;1.40;;
18867;SDS011;9563;49.240;9.088;2022-11-21T13:42:06;11.57;;;1.70;;
18867;SDS011;9563;49.240;9.088;2022-11-21T13:44:56;5.93;;;1.40;;
18867;SDS011;9563;49.240;9.088;2022-11-21T13:53:41;7.17;;;1.40;;
18867;SDS011;9563;49.240;9.088;2022-11-21T13:56:34;5.72;;;1.30;;
18867;SDS011;9563;49.240;9.088;2022-11-21T13:59:10;11.90;;;1.77;;
18867;SDS011;9563;49.240;9.088;2022-11-21T14:01:54;9.05;;;1.65;;
18867;SDS011;9563;49.240;9.088;2022-11-21T14:07:25;7.95;;;1.42;;
18867;SDS011;9563;49.240;9.088;2022-11-21T14:09:56;5.15;;;1.13;;
18867;SDS011;9563;49.240;9.088;2022-11-21T14:12:26;5.07;;;1.83;;
18867;SDS011;9563;49.240;9.088;2022-11-21T14:15:08;8.07;;;1.42;;
18867;SDS011;9563;49.240;9.088;2022-11-21T14:17:43;14.88;;;2.08;;
18867;SDS011;9563;49.240;9.088;2022-11-21T14:20:13;5.67;;;1.70;;
18867;SDS011;9563;49.240;9.088;2022-11-21T14:22:45;7.97;;;1.47;;
18867;SDS011;9563;49.240;9.088;2022-11-21T14:25:21;9.93;;;1.65;;
18867;SDS011;9563;49.240;9.088;2022-11-21T14:27:52;9.67;;;1.60;;
18867;SDS011;9563;49.240;9.088;2022-11-21T14:30:27;14.07;;;1.90;;
18867;SDS011;9563;49.240;9.088;2022-11-21T14:32:56;6.77;;;1.50;;
18867;SDS011;9563;49.240;9.088;2022-11-21T14:35:39;6.60;;;1.30;;
18867;SDS011;9563;49.240;9.088;2022-11-21T14:38:07;4.27;;;1.30;;
18867;SDS011;9563;49.240;9.088;2022-11-21T14:40:35;7.83;;;1.50;;
18867;SDS011;9563;49.240;9.088;2022-11-21T14:43:15;3.90;;;1.37;;
18867;SDS011;9563;49.240;9.088;2022-11-21T14:45:54;9.53;;;1.73;;
18867;SDS011;9563;49.240;9.088;2022-11-21T14:48:24;6.53;;;1.40;;
18867;SDS011;9563;49.240;9.088;2022-11-21T14:50:51;12.50;;;2.17;;
18867;SDS011;9563;49.240;9.088;2022-11-21T14:53:20;10.27;;;2.30;;
18867;SDS011;9563;49.240;9.088;2022-11-21T14:55:49;8.63;;;1.57;;
18867;SDS011;9563;49.240;9.088;2022-11-21T14:58:17;6.77;;;2.10;;
18867;SDS011;9563;49.240;9.088;2022-11-21T15:03:31;11.23;;;2.50;;
18867;SDS011;9563;49.240;9.088;2022-11-21T15:05:59;6.47;;;2.60;;
18867;SDS011;9563;49.240;9.088;2022-11-21T15:08:26;8.97;;;2.80;;
18867;SDS011;9563;49.240;9.088;2022-11-21T15:10:55;6.27;;;2.60;;
18867;SDS011;9563;49.240;9.088;2022-11-21T15:13:24;8.87;;;2.50;;
18867;SDS011;9563;49.240;9.088;2022-11-21T15:15:57;17.47;;;5.90;;
18867;SDS011;9563;49.240;9.088;2022-11-21T15:18:25;72.13;;;22.80;;
18867;SDS011;9563;49.240;9.088;2022-11-21T15:20:54;103.40;;;33.40;;
18867;SDS011;9563;49.240;9.088;2022-11-21T15:23:24;68.37;;;24.60;;
18867;SDS011;9563;49.240;9.088;2022-11-21T15:25:53;27.87;;;8.90;;
18867;SDS011;9563;49.240;9.088;2022-11-21T15:28:21;18.47;;;6.30;;
18867;SDS011;9563;49.240;9.088;2022-11-21T15:33:54;14.13;;;4.87;;
18867;SDS011;9563;49.240;9.088;2022-11-21T15:36:23;13.60;;;4.83;;
18867;SDS011;9563;49.240;9.088;2022-11-21T15:38:50;13.53;;;3.63;;
18867;SDS011;9563;49.240;9.088;2022-11-21T15:41:25;15.67;;;2.83;;
18867;SDS011;9563;49.240;9.088;2022-11-21T15:43:54;11.60;;;4.37;;
18867;SDS011;9563;49.240;9.088;2022-11-21T15:46:22;12.33;;;4.57;;
18867;SDS011;9563;49.240;9.088;2022-11-21T15:48:50;15.17;;;6.53;;
18867;SDS011;9563;49.240;9.088;2022-11-21T15:51:19;16.73;;;4.63;;
18867;SDS011;9563;49.240;9.088;2022-11-21T15:53:47;8.90;;;3.33;;
18867;SDS011;9563;49.240;9.088;2022-11-21T15:56:15;14.27;;;3.50;;
18867;SDS011;9563;49.240;9.088;2022-11-21T15:58:45;8.57;;;3.50;;
18867;SDS011;9563;49.240;9.088;2022-11-21T16:01:13;10.20;;;3.97;;